Time;durP1;ratioP1;P1;durP2;ratioP2;P2;SDS_P1;SDS_P2;PMS_P1;PMS_P2;Temp;Humidity;BMP_temperature;BMP_pressure;BME280_temperature;BME280_humidity;BME280_pressure;Samples;Min_cycle;Max_cycle;Signal;HPM_P1;HPM_P2
2021/05/20 00:03:17;;;;;;;1.10;0.80;;;20.90;51.20;;;;;;10467878;28;20204;-12
2021/05/20 00:08:38;;;;;;;0.60;0.60;;;20.90;51.40;;;;;;10455992;28;20585;-11
2021/05/20 00:14:01;;;;;;;0.60;0.60;;;21.00;51.30;;;;;;10455679;28;20200;-11
2021/05/20 00:19:23;;;;;;;0.60;0.60;;;21.00;51.10;;;;;;10465751;28;20217;-13
2021/05/20 00:24:45;;;;;;;0.50;0.50;;;20.90;51.10;;;;;;10457087;28;20185;-11
2021/05/20 00:30:10;;;;;;;0.93;0.80;;;20.90;51.10;;;;;;10463870;28;20693;-11
2021/05/20 00:35:31;;;;;;;3.33;0.80;;;21.00;51.10;;;;;;10482465;28;20217;-10
2021/05/20 00:40:58;;;;;;;1.27;0.70;;;21.00;51.10;;;;;;10494047;28;20239;-11
2021/05/20 00:46:20;;;;;;;0.90;0.80;;;21.00;50.90;;;;;;10466519;28;20186;-12
2021/05/20 00:51:45;;;;;;;0.87;0.80;;;21.00;51.10;;;;;;10454612;28;20701;-13
2021/05/20 00:57:08;;;;;;;1.00;0.73;;;21.00;51.00;;;;;;10463065;28;20227;-11
2021/05/20 01:02:31;;;;;;;0.60;0.60;;;21.00;51.10;;;;;;10471140;28;20225;-12
2021/05/20 01:07:53;;;;;;;0.60;0.60;;;20.90;51.10;;;;;;10452904;28;20193;-12
2021/05/20 01:13:15;;;;;;;1.70;0.80;;;20.90;51.00;;;;;;10452561;28;20189;-12
2021/05/20 01:18:37;;;;;;;2.60;0.90;;;20.90;51.00;;;;;;10453080;28;20220;-11
2021/05/20 01:24:00;;;;;;;0.97;0.90;;;21.00;50.80;;;;;;10469011;28;20192;-11
2021/05/20 01:29:21;;;;;;;1.33;1.17;;;21.00;51.30;;;;;;10493378;28;20220;-12
2021/05/20 01:34:55;;;;;;;1.37;1.00;;;21.00;50.50;;;;;;10492383;28;20216;-11
2021/05/20 01:40:18;;;;;;;1.10;1.00;;;21.00;51.20;;;;;;10484201;28;20212;-11
2021/05/20 01:45:39;;;;;;;1.37;0.90;;;20.90;50.80;;;;;;10493016;28;20194;-13
2021/05/20 01:51:03;;;;;;;1.30;1.20;;;20.90;50.80;;;;;;10492209;28;20629;-11
2021/05/20 01:56:27;;;;;;;1.53;1.20;;;20.90;50.90;;;;;;10493824;28;20750;-12
2021/05/20 02:01:49;;;;;;;1.33;1.20;;;20.90;50.80;;;;;;10488582;28;20220;-12
2021/05/20 02:07:10;;;;;;;1.63;1.00;;;20.90;50.80;;;;;;10458043;28;20276;-11
2021/05/20 02:12:33;;;;;;;1.20;1.10;;;20.90;50.80;;;;;;10460363;28;20227;-12
2021/05/20 02:17:54;;;;;;;1.43;1.10;;;20.90;50.80;;;;;;10460749;28;20232;-11
2021/05/20 02:23:18;;;;;;;1.10;1.00;;;20.90;50.60;;;;;;10488852;28;20197;-12
2021/05/20 02:28:40;;;;;;;1.00;0.90;;;20.90;50.60;;;;;;10491670;28;20746;-11
2021/05/20 02:34:02;;;;;;;1.40;1.23;;;20.90;50.70;;;;;;10491577;28;20204;-11
2021/05/20 02:39:23;;;;;;;1.30;1.07;;;20.90;50.70;;;;;;10492335;28;20337;-13
2021/05/20 02:44:46;;;;;;;1.33;1.20;;;20.90;50.60;;;;;;10488753;28;20189;-13
2021/05/20 02:50:08;;;;;;;1.20;1.10;;;20.90;50.60;;;;;;10494031;22;20357;-9
2021/05/20 02:55:30;;;;;;;2.00;1.10;;;20.90;50.50;;;;;;10508609;28;20825;-9
2021/05/20 03:00:52;;;;;;;1.10;1.00;;;20.90;50.40;;;;;;10502916;28;20612;-9
2021/05/20 03:06:14;;;;;;;1.63;1.10;;;20.80;50.40;;;;;;10475578;28;20197;-8
2021/05/20 03:11:35;;;;;;;1.10;1.00;;;20.90;50.10;;;;;;10457245;28;20209;-10
2021/05/20 03:16:58;;;;;;;1.83;0.90;;;20.90;50.10;;;;;;10463116;28;20224;-8
2021/05/20 03:22:21;;;;;;;1.03;0.93;;;20.90;50.10;;;;;;10458085;28;20248;-11
2021/05/20 03:27:43;;;;;;;1.67;1.00;;;20.90;50.20;;;;;;10491252;28;20200;-10
2021/05/20 03:33:05;;;;;;;0.97;0.93;;;20.90;50.10;;;;;;10497873;28;20707;-8
2021/05/20 03:38:27;;;;;;;1.67;1.00;;;20.90;50.00;;;;;;10487570;28;20289;-10
2021/05/20 03:43:49;;;;;;;1.27;0.90;;;20.80;50.10;;;;;;10499112;28;20208;-9
2021/05/20 03:49:11;;;;;;;2.60;1.10;;;20.80;50.10;;;;;;10496157;28;20231;-11
2021/05/20 03:54:33;;;;;;;1.20;1.10;;;20.80;50.20;;;;;;10488458;28;20203;-12
2021/05/20 03:59:54;;;;;;;1.90;0.90;;;20.90;49.90;;;;;;10496991;28;20212;-12
2021/05/20 04:05:17;;;;;;;1.00;1.00;;;20.80;49.90;;;;;;10473345;28;20193;-11
2021/05/20 04:10:38;;;;;;;3.57;1.23;;;20.80;50.00;;;;;;10455550;28;20267;-13
2021/05/20 04:16:01;;;;;;;1.20;1.07;;;20.80;50.00;;;;;;10464148;28;20220;-10
2021/05/20 04:21:23;;;;;;;1.03;0.93;;;20.80;50.10;;;;;;10494494;28;20716;-11
2021/05/20 04:26:45;;;;;;;1.20;1.10;;;20.90;50.10;;;;;;10494720;28;20192;-11
2021/05/20 04:32:07;;;;;;;2.10;1.20;;;20.80;50.10;;;;;;10476596;28;20213;-11
2021/05/20 04:37:30;;;;;;;1.67;1.10;;;20.80;50.10;;;;;;10471284;28;20216;-10
2021/05/20 04:42:52;;;;;;;1.27;1.03;;;20.80;50.10;;;;;;10494945;28;20223;-11
2021/05/20 04:48:14;;;;;;;1.13;1.00;;;20.80;50.20;;;;;;10484374;28;20189;-12
2021/05/20 04:53:37;;;;;;;1.10;1.00;;;20.70;50.00;;;;;;10480585;28;20266;-11
2021/05/20 04:58:59;;;;;;;1.50;0.97;;;20.70;49.80;;;;;;10452855;28;20342;-11
2021/05/20 05:04:21;;;;;;;1.53;1.13;;;20.80;49.80;;;;;;10476910;28;20204;-10
2021/05/20 05:09:43;;;;;;;1.00;0.90;;;20.80;49.80;;;;;;10492388;28;20240;-10
2021/05/20 05:15:06;;;;;;;1.03;0.93;;;20.70;49.90;;;;;;10493322;28;20216;-12
2021/05/20 05:20:28;;;;;;;1.17;1.07;;;20.70;50.10;;;;;;10480622;28;20263;-11
2021/05/20 05:25:50;;;;;;;2.27;1.10;;;20.80;50.10;;;;;;10480663;28;20680;-10
2021/05/20 05:31:14;;;;;;;2.67;0.90;;;20.80;50.10;;;;;;10493160;28;20227;-11
2021/05/20 05:36:35;;;;;;;0.90;0.80;;;20.80;50.20;;;;;;10494041;28;20303;-11
2021/05/20 05:41:58;;;;;;;1.93;0.93;;;20.70;50.40;;;;;;10481891;28;20212;-8
2021/05/20 05:47:20;;;;;;;5.60;0.87;;;20.70;50.40;;;;;;10492116;28;20676;-11
2021/05/20 05:52:41;;;;;;;4.20;1.47;;;20.80;50.40;;;;;;10491517;28;20309;-12
2021/05/20 05:58:04;;;;;;;2.37;0.93;;;20.70;50.10;;;;;;10477198;28;20609;-10
2021/05/20 06:03:26;;;;;;;2.60;1.13;;;20.80;50.50;;;;;;10472888;28;20196;-10
2021/05/20 06:08:48;;;;;;;1.97;0.93;;;20.80;50.50;;;;;;10492827;28;20299;-12
2021/05/20 06:14:11;;;;;;;2.23;1.27;;;20.80;50.40;;;;;;10475352;28;20259;-10
2021/05/20 06:19:32;;;;;;;1.47;0.70;;;20.90;50.40;;;;;;10466790;28;20228;-10
2021/05/20 06:24:54;;;;;;;2.27;1.20;;;20.90;50.50;;;;;;10450157;28;20250;-10
2021/05/20 06:30:18;;;;;;;9.47;1.40;;;21.00;50.30;;;;;;10451811;28;20217;-12
2021/05/20 06:35:40;;;;;;;4.67;1.27;;;20.80;50.00;;;;;;10449433;28;20233;-10
2021/05/20 06:41:05;;;;;;;2.47;0.90;;;20.90;50.00;;;;;;10463615;28;20209;-11
2021/05/20 06:46:27;;;;;;;8.67;1.47;;;21.00;49.80;;;;;;10481565;28;20199;-11
2021/05/20 06:51:49;;;;;;;3.93;1.00;;;21.00;49.30;;;;;;10493261;28;20228;-11
2021/05/20 06:57:19;;;;;;;3.47;1.30;;;21.00;50.10;;;;;;10498329;28;20294;-10
2021/05/20 07:02:42;;;;;;;7.10;1.40;;;21.00;50.20;;;;;;10478341;28;20217;-10
2021/05/20 07:08:04;;;;;;;2.77;1.10;;;21.00;49.20;;;;;;10457242;28;20189;-9
2021/05/20 07:13:26;;;;;;;4.90;1.10;;;20.90;48.60;;;;;;10456825;28;20457;-8
2021/05/20 07:18:48;;;;;;;1.20;0.77;;;20.90;48.80;;;;;;10456762;28;20267;-11
2021/05/20 07:24:10;;;;;;;3.83;1.07;;;20.90;48.90;;;;;;10458279;28;20669;-10
2021/05/20 07:29:32;;;;;;;4.73;0.90;;;21.00;48.70;;;;;;10458098;28;20221;-11
2021/05/20 07:34:54;;;;;;;2.30;0.90;;;21.00;49.10;;;;;;10456981;28;20327;-10
2021/05/20 07:40:18;;;;;;;2.07;0.87;;;21.10;49.50;;;;;;10456295;28;20225;-12
2021/05/20 07:45:39;;;;;;;2.17;0.90;;;21.00;49.30;;;;;;10482170;28;20311;-11
2021/05/20 07:51:04;;;;;;;4.33;0.83;;;21.00;49.50;;;;;;10492213;28;20639;-10
2021/05/20 07:56:26;;;;;;;2.30;0.87;;;20.90;49.80;;;;;;10497830;28;20592;-13
2021/05/20 08:01:53;;;;;;;2.73;0.87;;;21.00;49.70;;;;;;10483850;28;20774;-9
2021/05/20 08:07:24;;;;;;;1.47;0.70;;;21.10;49.50;;;;;;10473723;28;20272;-13
2021/05/20 08:12:46;;;;;;;3.83;1.00;;;21.10;49.50;;;;;;10466999;28;20231;-13
2021/05/20 08:18:07;;;;;;;1.63;0.70;;;21.10;49.50;;;;;;10484490;28;20247;-12
2021/05/20 08:23:32;;;;;;;2.30;0.40;;;21.00;49.40;;;;;;10465354;28;20235;-10
2021/05/20 08:28:54;;;;;;;0.93;0.60;;;21.10;49.50;;;;;;10448876;28;20532;-12
2021/05/20 08:34:15;;;;;;;1.63;0.60;;;21.10;49.70;;;;;;10475653;28;20195;-10
2021/05/20 08:39:38;;;;;;;1.47;0.40;;;21.10;49.70;;;;;;10489582;28;20234;-10
2021/05/20 08:45:08;;;;;;;1.43;0.83;;;21.10;49.70;;;;;;10488528;28;20200;-10
2021/05/20 08:50:31;;;;;;;1.10;0.60;;;21.10;49.60;;;;;;10491027;28;20254;-10
2021/05/20 08:55:54;;;;;;;1.70;0.70;;;21.00;49.60;;;;;;10489560;28;20216;-10
2021/05/20 09:01:34;;;;;;;1.63;0.60;;;21.10;49.70;;;;;;10482807;28;20221;-11
2021/05/20 09:06:59;;;;;;;1.03;0.60;;;21.20;49.70;;;;;;10446469;28;20197;-11
2021/05/20 09:12:22;;;;;;;0.93;0.57;;;21.30;49.40;;;;;;10467077;28;20754;-11
2021/05/20 09:17:44;;;;;;;1.17;0.50;;;21.20;49.40;;;;;;10487452;28;20783;-10
2021/05/20 09:23:07;;;;;;;0.97;0.50;;;21.30;49.10;;;;;;10467835;28;20735;-10
2021/05/20 09:33:33;;;;;;;0.50;0.50;;;21.10;49.60;;;;;;10519295;28;20640;-13
2021/05/20 09:39:10;;;;;;;0.70;0.50;;;21.30;49.40;;;;;;10522584;28;20658;-12
2021/05/20 09:44:32;;;;;;;0.60;0.50;;;21.20;49.60;;;;;;10565470;28;20758;-13
2021/05/20 09:50:00;;;;;;;0.90;0.53;;;21.10;49.80;;;;;;10538941;28;20219;-14
2021/05/20 09:55:25;;;;;;;1.03;0.57;;;21.20;49.80;;;;;;10561508;28;20207;-13
2021/05/20 10:00:46;;;;;;;0.70;0.50;;;21.20;49.70;;;;;;10539332;28;20211;-14
2021/05/20 10:06:09;;;;;;;0.67;0.53;;;21.10;49.80;;;;;;10576192;28;20627;-11
2021/05/20 10:11:32;;;;;;;0.90;0.60;;;21.10;49.90;;;;;;10557553;28;20215;-12
2021/05/20 10:16:55;;;;;;;2.40;0.60;;;21.20;49.80;;;;;;10534328;28;20591;-12
2021/05/20 10:22:18;;;;;;;1.03;0.73;;;21.10;50.60;;;;;;10510507;28;20225;-12
2021/05/20 10:27:41;;;;;;;0.50;0.50;;;21.10;50.00;;;;;;10532600;28;20270;-12
2021/05/20 10:33:03;;;;;;;0.67;0.50;;;21.10;50.00;;;;;;10542248;28;20234;-13
2021/05/20 10:38:39;;;;;;;1.10;0.67;;;21.10;50.10;;;;;;10542548;28;20243;-13
2021/05/20 10:44:09;;;;;;;0.63;0.60;;;21.00;50.20;;;;;;10551699;28;20191;-11
2021/05/20 10:49:59;;;;;;;0.70;0.70;;;21.00;50.40;;;;;;10553689;28;20207;-12
2021/05/20 10:55:37;;;;;;;0.40;0.40;;;21.00;50.50;;;;;;10536760;28;20185;-13
2021/05/20 11:00:58;;;;;;;0.73;0.40;;;21.00;50.50;;;;;;10510155;28;20203;-12
2021/05/20 11:06:21;;;;;;;0.60;0.30;;;21.00;50.50;;;;;;10568213;28;20193;-11
2021/05/20 11:11:50;;;;;;;0.77;0.63;;;21.00;50.40;;;;;;10531286;28;20277;-12
2021/05/20 11:17:45;;;;;;;0.73;0.60;;;21.00;50.40;;;;;;10499082;28;20220;-12
2021/05/20 11:23:23;;;;;;;0.83;0.50;;;21.00;50.30;;;;;;10499024;28;20212;-12
2021/05/20 11:29:10;;;;;;;0.67;0.40;;;20.90;50.50;;;;;;10499647;28;20619;-12
2021/05/20 11:34:49;;;;;;;0.50;0.40;;;21.00;50.60;;;;;;10499295;28;20196;-13
2021/05/20 11:40:26;;;;;;;0.40;0.40;;;20.90;50.60;;;;;;10501980;28;20700;-12
2021/05/20 11:45:48;;;;;;;0.70;0.50;;;21.00;50.50;;;;;;10539929;28;20184;-11
2021/05/20 11:51:10;;;;;;;0.60;0.50;;;21.00;50.60;;;;;;10513747;28;20696;-12
2021/05/20 11:56:48;;;;;;;0.73;0.50;;;21.00;50.50;;;;;;10510086;28;20318;-12
2021/05/20 12:02:13;;;;;;;0.47;0.47;;;21.00;50.90;;;;;;10538310;28;20216;-13
2021/05/20 12:07:37;;;;;;;0.87;0.50;;;21.00;50.50;;;;;;10512927;28;20192;-12
2021/05/20 12:13:01;;;;;;;0.53;0.40;;;21.00;50.60;;;;;;10560555;28;20306;-12
2021/05/20 12:18:24;;;;;;;0.40;0.40;;;20.90;50.70;;;;;;10551419;28;20288;-12
2021/05/20 12:23:56;;;;;;;0.50;0.50;;;20.90;50.80;;;;;;10538375;28;20202;-13
2021/05/20 12:29:18;;;;;;;0.40;0.40;;;20.80;50.60;;;;;;10538558;28;20237;-12
2021/05/20 12:34:40;;;;;;;0.93;0.40;;;20.90;50.70;;;;;;10545783;28;20541;-12
2021/05/20 12:40:10;;;;;;;0.30;0.30;;;20.90;50.50;;;;;;10538435;28;20407;-12
2021/05/20 12:45:34;;;;;;;0.70;0.53;;;21.00;50.30;;;;;;10534161;28;20182;-12
2021/05/20 12:50:58;;;;;;;0.37;0.37;;;21.00;50.30;;;;;;10537686;28;20621;-12
2021/05/20 12:56:28;;;;;;;0.70;0.50;;;21.00;50.40;;;;;;10535832;28;20226;-12
2021/05/20 13:01:53;;;;;;;1.60;0.30;;;21.00;50.30;;;;;;10548091;28;20221;-12
2021/05/20 13:07:16;;;;;;;1.40;0.50;;;21.00;50.30;;;;;;10578819;28;20219;-12
2021/05/20 13:12:42;;;;;;;0.57;0.50;;;21.00;50.30;;;;;;10549708;28;20242;-12
2021/05/20 13:18:31;;;;;;;0.50;0.40;;;20.90;50.50;;;;;;10566850;28;20214;-13
2021/05/20 13:23:54;;;;;;;0.77;0.60;;;20.90;50.80;;;;;;10492180;28;20283;-12
2021/05/20 13:29:15;;;;;;;1.00;0.57;;;20.90;50.90;;;;;;10532996;28;20231;-11
2021/05/20 13:34:37;;;;;;;0.67;0.40;;;20.90;50.80;;;;;;10512145;28;20203;-11
2021/05/20 13:40:03;;;;;;;0.83;0.40;;;20.90;50.80;;;;;;10494201;28;20294;-14
2021/05/20 13:45:27;;;;;;;1.60;0.50;;;20.90;50.80;;;;;;10503478;28;20192;-12
2021/05/20 13:50:50;;;;;;;5.93;1.23;;;21.00;50.80;;;;;;10512485;28;20765;-14
2021/05/20 13:56:12;;;;;;;16.00;1.43;;;21.10;49.90;;;;;;10510126;28;20255;-12
2021/05/20 14:01:34;;;;;;;8.43;1.20;;;21.30;49.60;;;;;;10514117;28;20610;-13
2021/05/20 14:06:56;;;;;;;27.37;2.50;;;21.40;49.10;;;;;;10513447;28;20235;-13
2021/05/20 14:12:19;;;;;;;15.00;1.50;;;21.30;49.40;;;;;;10520557;28;20215;-13
2021/05/20 14:17:45;;;;;;;11.90;1.60;;;21.30;49.30;;;;;;10526419;28;20252;-13
2021/05/20 14:23:06;;;;;;;6.13;1.07;;;21.30;49.10;;;;;;10532924;28;20218;-12
2021/05/20 14:28:29;;;;;;;10.87;1.13;;;21.20;49.50;;;;;;10532013;28;20191;-12
2021/05/20 14:33:50;;;;;;;6.03;0.93;;;21.20;49.70;;;;;;10534061;28;20196;-12
2021/05/20 14:39:12;;;;;;;13.43;1.73;;;21.20;49.50;;;;;;10533848;28;20622;-11
2021/05/20 14:44:35;;;;;;;7.43;1.13;;;21.20;49.70;;;;;;10498627;28;20201;-11
2021/05/20 14:49:57;;;;;;;5.83;1.30;;;21.20;49.50;;;;;;10523467;28;20236;-12
2021/05/20 14:55:22;;;;;;;5.13;0.90;;;21.10;49.80;;;;;;10526494;28;20196;-13
2021/05/20 15:06:29;;;;;;;3.70;0.77;;;21.10;50.10;;;;;;10505539;28;20203;-13
2021/05/20 15:11:55;;;;;;;8.87;1.43;;;21.30;49.70;;;;;;10543352;28;20215;-14
2021/05/20 15:17:21;;;;;;;8.53;1.00;;;21.60;49.00;;;;;;10582120;28;20207;-12
2021/05/20 15:22:43;;;;;;;3.57;1.00;;;21.60;48.40;;;;;;10547415;28;20711;-12
2021/05/20 15:28:05;;;;;;;2.83;0.80;;;21.70;48.40;;;;;;10563818;28;20248;-12
2021/05/20 15:33:27;;;;;;;2.53;0.77;;;21.70;48.10;;;;;;10561144;22;20596;-13
2021/05/20 15:38:49;;;;;;;9.43;1.37;;;21.80;47.70;;;;;;10522483;28;20498;-13
2021/05/20 15:44:13;;;;;;;3.17;0.80;;;22.80;45.40;;;;;;10476112;28;20688;-14
2021/05/20 15:55:20;;;;;;;10.40;1.00;;;21.70;48.00;;;;;;10463148;28;20234;-11
2021/05/20 16:00:42;;;;;;;1.93;0.60;;;21.60;48.30;;;;;;10486926;28;20209;-15
2021/05/20 16:06:05;;;;;;;5.13;0.80;;;21.50;48.50;;;;;;10454877;28;20570;-11
2021/05/20 16:11:36;;;;;;;2.37;0.70;;;21.40;48.90;;;;;;10475705;28;20262;-11
2021/05/20 16:16:57;;;;;;;3.60;0.60;;;21.30;48.90;;;;;;10467939;28;20217;-15
2021/05/20 16:22:26;;;;;;;2.33;0.80;;;21.30;48.80;;;;;;10466943;28;20220;-11
2021/05/20 16:28:14;;;;;;;1.07;0.47;;;21.30;48.70;;;;;;10495625;28;20188;-12
2021/05/20 16:33:54;;;;;;;3.03;0.60;;;21.30;48.90;;;;;;10474735;28;20588;-14
2021/05/20 16:39:17;;;;;;;2.27;0.53;;;21.20;48.70;;;;;;10462882;28;20696;-14
2021/05/20 16:44:38;;;;;;;4.57;0.87;;;21.30;48.60;;;;;;10493460;28;20196;-13
2021/05/20 16:50:00;;;;;;;4.80;0.90;;;21.40;48.20;;;;;;10491461;28;20212;-12
2021/05/20 16:55:25;;;;;;;3.83;0.80;;;21.40;48.40;;;;;;10496338;28;20193;-9
2021/05/20 17:00:47;;;;;;;3.53;0.70;;;21.50;48.50;;;;;;10492223;28;20582;-14
2021/05/20 17:06:09;;;;;;;2.77;1.00;;;21.40;48.40;;;;;;10495558;28;20596;-14
2021/05/20 17:11:32;;;;;;;4.37;1.33;;;21.40;48.80;;;;;;10494620;28;20274;-10
2021/05/20 17:16:53;;;;;;;6.40;1.43;;;21.40;48.70;;;;;;10490631;28;20262;-14
2021/05/20 17:22:15;;;;;;;6.07;1.00;;;21.40;48.80;;;;;;10470966;28;20208;-12
2021/05/20 17:27:38;;;;;;;5.60;0.87;;;21.40;48.80;;;;;;10472527;28;20188;-15
2021/05/20 17:33:00;;;;;;;2.77;0.83;;;21.50;48.90;;;;;;10475436;28;20232;-11
2021/05/20 17:38:22;;;;;;;3.33;0.60;;;21.40;48.90;;;;;;10472468;28;20221;-16
2021/05/20 17:43:44;;;;;;;1.63;0.80;;;21.30;49.10;;;;;;10468652;28;20291;-15
2021/05/20 17:49:06;;;;;;;3.03;1.00;;;21.30;49.10;;;;;;10470902;28;20194;-14
2021/05/20 17:54:28;;;;;;;2.00;0.73;;;21.30;49.20;;;;;;10452080;28;20197;-13
2021/05/20 17:59:52;;;;;;;3.57;1.00;;;21.30;49.30;;;;;;10452490;28;20220;-14
2021/05/20 18:05:14;;;;;;;2.67;0.77;;;21.40;49.10;;;;;;10493048;28;20228;-14
2021/05/20 18:10:40;;;;;;;1.57;0.77;;;21.30;49.40;;;;;;10492640;28;20731;-13
2021/05/20 18:16:07;;;;;;;4.67;0.70;;;21.30;49.50;;;;;;10488741;28;20212;-10
2021/05/20 18:27:06;;;;;;;2.40;0.87;;;21.20;49.80;;;;;;10433510;28;20269;-14
2021/05/20 18:32:29;;;;;;;2.87;0.97;;;21.20;49.90;;;;;;10469958;28;20235;-14
2021/05/20 18:37:53;;;;;;;7.10;1.40;;;21.30;49.80;;;;;;10486383;28;20330;-14
2021/05/20 18:43:15;;;;;;;10.30;1.43;;;21.70;49.00;;;;;;10466950;28;20209;-14
2021/05/20 18:48:37;;;;;;;5.23;0.80;;;21.70;49.10;;;;;;10454277;28;20201;-15
2021/05/20 18:53:59;;;;;;;6.60;1.03;;;21.70;49.20;;;;;;10474457;28;20201;-15
2021/05/20 18:59:21;;;;;;;3.83;1.03;;;21.60;49.60;;;;;;10472382;28;20220;-15
2021/05/20 19:04:44;;;;;;;5.00;1.17;;;21.60;49.30;;;;;;10488247;28;20200;-15
2021/05/20 19:10:08;;;;;;;4.80;1.17;;;21.60;49.60;;;;;;10466046;28;20208;-15
2021/05/20 19:15:31;;;;;;;13.52;2.00;;;21.60;50.00;;;;;;10490097;28;20442;-15
2021/05/20 19:20:55;;;;;;;8.57;2.10;;;21.60;49.40;;;;;;10489765;28;20243;-15
2021/05/20 19:26:17;;;;;;;3.93;1.27;;;21.50;49.30;;;;;;10496597;28;20196;-14
2021/05/20 19:31:47;;;;;;;7.17;1.30;;;21.50;49.60;;;;;;10488622;28;20227;-15
2021/05/20 19:37:13;;;;;;;3.07;1.40;;;21.50;49.50;;;;;;10457383;28;20589;-15
2021/05/20 19:42:35;;;;;;;5.63;1.20;;;21.50;49.50;;;;;;10468409;28;20582;-15
2021/05/20 19:47:58;;;;;;;5.53;1.30;;;21.40;49.80;;;;;;10476469;28;20192;-15
2021/05/20 19:53:24;;;;;;;1.50;1.20;;;21.40;49.80;;;;;;10497755;28;20711;-15
2021/05/20 20:04:28;;;;;;;8.57;1.50;;;21.50;50.00;;;;;;10468916;28;20280;-14
2021/05/20 20:09:51;;;;;;;1.80;1.07;;;21.40;50.00;;;;;;10470086;28;20260;-13
2021/05/20 20:15:13;;;;;;;2.30;1.43;;;21.40;50.10;;;;;;10478460;28;20197;-15
2021/05/20 20:20:37;;;;;;;3.63;0.93;;;21.50;50.20;;;;;;10472506;28;20220;-15
2021/05/20 20:27:41;;;;;;;1.60;1.00;;;21.60;49.70;;;;;;10468482;28;20193;-15
2021/05/20 20:31:47;;;;;;;2.20;1.00;;;21.50;49.60;;;;;;10472397;28;20340;-15
2021/05/20 20:37:19;;;;;;;2.13;1.10;;;21.30;50.00;;;;;;10494538;28;20684;-15
2021/05/20 20:42:42;;;;;;;2.87;0.70;;;21.40;50.00;;;;;;10494958;28;20614;-14
2021/05/20 20:48:04;;;;;;;2.10;1.03;;;21.50;50.00;;;;;;10466547;28;20193;-15
2021/05/20 20:53:25;;;;;;;1.53;0.73;;;21.40;50.10;;;;;;10455495;28;20213;-15
2021/05/20 20:58:48;;;;;;;3.03;1.03;;;21.30;50.20;;;;;;10464952;28;20223;-15
2021/05/20 21:04:10;;;;;;;1.30;0.90;;;21.30;50.30;;;;;;10475281;28;20228;-15
2021/05/20 21:09:32;;;;;;;2.33;1.10;;;21.30;50.20;;;;;;10453865;28;20224;-15
2021/05/20 21:14:54;;;;;;;1.30;0.90;;;21.30;50.40;;;;;;10453357;28;20574;-15
2021/05/20 21:20:16;;;;;;;1.60;1.13;;;21.20;50.40;;;;;;10452679;28;20221;-16
2021/05/20 21:25:37;;;;;;;1.27;0.87;;;21.20;50.30;;;;;;10453360;28;20204;-15
2021/05/20 21:31:00;;;;;;;2.60;1.10;;;21.20;50.40;;;;;;10513153;22;20231;-15
2021/05/20 21:36:21;;;;;;;1.20;1.00;;;21.10;50.60;;;;;;10509550;28;20216;-15
2021/05/20 21:41:43;;;;;;;1.60;1.00;;;21.10;50.60;;;;;;10512419;28;20219;-16
2021/05/20 21:47:06;;;;;;;1.90;1.00;;;21.10;50.60;;;;;;10534582;28;20187;-15
2021/05/20 21:52:27;;;;;;;1.07;0.90;;;21.10;50.60;;;;;;10533958;28;20216;-13
2021/05/20 21:57:49;;;;;;;1.23;1.00;;;21.10;50.70;;;;;;10502770;28;20715;-15
2021/05/20 22:03:12;;;;;;;1.57;1.00;;;21.10;50.70;;;;;;10534663;28;20211;-15
2021/05/20 22:08:33;;;;;;;1.00;0.90;;;21.10;50.70;;;;;;10536264;28;20281;-15
2021/05/20 22:13:59;;;;;;;2.23;0.97;;;21.00;50.80;;;;;;10531873;28;20215;-16
2021/05/20 22:19:21;;;;;;;2.13;1.00;;;21.00;50.70;;;;;;10535931;28;20699;-16
2021/05/20 22:24:44;;;;;;;1.10;1.00;;;21.00;50.70;;;;;;10539141;28;20199;-15
2021/05/20 22:30:13;;;;;;;1.23;1.00;;;21.00;50.70;;;;;;10544317;28;20644;-15
2021/05/20 22:35:35;;;;;;;1.37;1.20;;;21.00;51.10;;;;;;10541224;28;20192;-13
2021/05/20 22:40:57;;;;;;;1.53;1.10;;;20.90;51.10;;;;;;10542302;28;20285;-15
2021/05/20 22:46:19;;;;;;;1.90;1.10;;;20.90;51.30;;;;;;10542152;28;20211;-13
2021/05/20 22:51:41;;;;;;;1.67;1.40;;;20.80;51.30;;;;;;10542049;28;20216;-15
2021/05/20 22:57:03;;;;;;;1.63;1.10;;;20.80;51.40;;;;;;10541470;28;20273;-16
2021/05/20 23:02:24;;;;;;;1.93;1.17;;;20.80;51.50;;;;;;10514342;28;20238;-13
2021/05/20 23:07:47;;;;;;;1.87;1.53;;;20.90;51.30;;;;;;10537322;28;20203;-14
2021/05/20 23:13:08;;;;;;;1.63;1.47;;;21.00;51.00;;;;;;10542691;28;20224;-13
2021/05/20 23:18:30;;;;;;;1.77;1.50;;;20.90;51.00;;;;;;10542634;28;20222;-15
2021/05/20 23:23:52;;;;;;;1.20;1.10;;;20.90;51.00;;;;;;10542352;28;20216;-15
2021/05/20 23:29:14;;;;;;;2.13;1.50;;;20.90;51.00;;;;;;10542885;28;20202;-15
2021/05/20 23:34:36;;;;;;;1.20;1.10;;;20.90;51.10;;;;;;10540719;28;20199;-15
2021/05/20 23:39:58;;;;;;;1.73;1.63;;;20.90;51.20;;;;;;10541821;28;20707;-15
2021/05/20 23:45:20;;;;;;;2.03;1.30;;;20.90;51.30;;;;;;10541456;28;20195;-15
2021/05/20 23:50:41;;;;;;;2.20;1.60;;;20.90;51.20;;;;;;10541276;28;20591;-15
2021/05/20 23:56:04;;;;;;;1.53;1.37;;;20.90;51.20;;;;;;10537785;28;20596;-15
